sensor_id;sensor_type;location;lat;lon;timestamp;P1;durP1;ratioP1;P2;durP2;ratioP2
76053;SDS011;64752;48.870;9.082;2023-02-14T00:01:42;65.75;;;30.65;;
76053;SDS011;64752;48.870;9.082;2023-02-14T00:04:07;67.15;;;29.83;;
76053;SDS011;64752;48.870;9.082;2023-02-14T00:06:33;64.95;;;28.05;;
76053;SDS011;64752;48.870;9.082;2023-02-14T00:08:59;67.68;;;30.15;;
76053;SDS011;64752;48.870;9.082;2023-02-14T00:11:25;64.15;;;28.80;;
76053;SDS011;64752;48.870;9.082;2023-02-14T00:13:50;60.00;;;28.50;;
76053;SDS011;64752;48.870;9.082;2023-02-14T00:16:34;69.45;;;30.13;;
76053;SDS011;64752;48.870;9.082;2023-02-14T00:18:59;77.17;;;31.70;;
76053;SDS011;64752;48.870;9.082;2023-02-14T00:21:27;76.13;;;31.80;;
76053;SDS011;64752;48.870;9.082;2023-02-14T00:23:52;77.87;;;32.03;;
76053;SDS011;64752;48.870;9.082;2023-02-14T00:26:17;77.03;;;31.33;;
76053;SDS011;64752;48.870;9.082;2023-02-14T00:28:43;87.88;;;32.95;;
76053;SDS011;64752;48.870;9.082;2023-02-14T00:31:08;78.40;;;33.30;;
76053;SDS011;64752;48.870;9.082;2023-02-14T00:33:34;90.53;;;34.87;;
76053;SDS011;64752;48.870;9.082;2023-02-14T00:36:01;97.90;;;35.33;;
76053;SDS011;64752;48.870;9.082;2023-02-14T00:40:51;95.78;;;33.33;;
76053;SDS011;64752;48.870;9.082;2023-02-14T00:43:16;86.65;;;32.25;;
76053;SDS011;64752;48.870;9.082;2023-02-14T00:45:41;93.53;;;35.45;;
76053;SDS011;64752;48.870;9.082;2023-02-14T00:48:07;83.80;;;32.78;;
76053;SDS011;64752;48.870;9.082;2023-02-14T00:50:32;82.93;;;33.00;;
76053;SDS011;64752;48.870;9.082;2023-02-14T00:52:57;82.77;;;33.47;;
76053;SDS011;64752;48.870;9.082;2023-02-14T00:55:22;77.13;;;32.90;;
76053;SDS011;64752;48.870;9.082;2023-02-14T00:57:48;82.28;;;33.38;;
76053;SDS011;64752;48.870;9.082;2023-02-14T01:00:13;88.97;;;33.17;;
76053;SDS011;64752;48.870;9.082;2023-02-14T01:02:38;80.35;;;32.97;;
76053;SDS011;64752;48.870;9.082;2023-02-14T01:05:04;77.53;;;32.45;;
76053;SDS011;64752;48.870;9.082;2023-02-14T01:07:29;83.13;;;31.33;;
76053;SDS011;64752;48.870;9.082;2023-02-14T01:09:54;77.45;;;32.53;;
76053;SDS011;64752;48.870;9.082;2023-02-14T01:12:19;82.65;;;33.92;;
76053;SDS011;64752;48.870;9.082;2023-02-14T01:14:44;85.37;;;33.63;;
76053;SDS011;64752;48.870;9.082;2023-02-14T01:17:10;79.55;;;32.22;;
76053;SDS011;64752;48.870;9.082;2023-02-14T01:19:35;73.63;;;32.57;;
76053;SDS011;64752;48.870;9.082;2023-02-14T01:22:00;82.55;;;33.20;;
76053;SDS011;64752;48.870;9.082;2023-02-14T01:24:26;79.53;;;31.67;;
76053;SDS011;64752;48.870;9.082;2023-02-14T01:26:51;74.20;;;31.52;;
76053;SDS011;64752;48.870;9.082;2023-02-14T01:29:16;80.10;;;31.27;;
76053;SDS011;64752;48.870;9.082;2023-02-14T01:31:41;91.20;;;35.30;;
76053;SDS011;64752;48.870;9.082;2023-02-14T01:34:06;76.47;;;31.50;;
76053;SDS011;64752;48.870;9.082;2023-02-14T01:36:32;85.05;;;32.38;;
76053;SDS011;64752;48.870;9.082;2023-02-14T01:39:00;95.82;;;35.92;;
76053;SDS011;64752;48.870;9.082;2023-02-14T01:43:56;82.18;;;30.80;;
76053;SDS011;64752;48.870;9.082;2023-02-14T01:46:22;87.38;;;33.22;;
76053;SDS011;64752;48.870;9.082;2023-02-14T01:48:47;94.87;;;34.30;;
76053;SDS011;64752;48.870;9.082;2023-02-14T01:51:13;84.50;;;33.80;;
76053;SDS011;64752;48.870;9.082;2023-02-14T01:53:39;86.50;;;33.73;;
76053;SDS011;64752;48.870;9.082;2023-02-14T01:56:08;96.72;;;35.70;;
76053;SDS011;64752;48.870;9.082;2023-02-14T01:58:35;95.20;;;35.40;;
76053;SDS011;64752;48.870;9.082;2023-02-14T02:01:02;106.65;;;36.95;;
76053;SDS011;64752;48.870;9.082;2023-02-14T02:06:28;91.68;;;35.42;;
76053;SDS011;64752;48.870;9.082;2023-02-14T02:11:39;85.93;;;33.38;;
76053;SDS011;64752;48.870;9.082;2023-02-14T02:14:04;98.83;;;36.43;;
76053;SDS011;64752;48.870;9.082;2023-02-14T02:24:30;111.63;;;37.00;;
76053;SDS011;64752;48.870;9.082;2023-02-14T02:40:26;123.18;;;41.03;;
76053;SDS011;64752;48.870;9.082;2023-02-14T02:50:27;113.47;;;35.90;;
76053;SDS011;64752;48.870;9.082;2023-02-14T03:01:09;111.15;;;38.50;;
76053;SDS011;64752;48.870;9.082;2023-02-14T03:03:35;112.40;;;37.75;;
76053;SDS011;64752;48.870;9.082;2023-02-14T03:06:19;109.13;;;38.20;;
76053;SDS011;64752;48.870;9.082;2023-02-14T03:08:45;110.47;;;38.17;;
76053;SDS011;64752;48.870;9.082;2023-02-14T03:11:11;124.70;;;41.53;;
76053;SDS011;64752;48.870;9.082;2023-02-14T03:21:27;127.30;;;40.90;;
76053;SDS011;64752;48.870;9.082;2023-02-14T03:26:27;127.60;;;41.72;;
76053;SDS011;64752;48.870;9.082;2023-02-14T03:36:32;137.43;;;43.28;;
76053;SDS011;64752;48.870;9.082;2023-02-14T03:39:05;151.40;;;45.58;;
76053;SDS011;64752;48.870;9.082;2023-02-14T03:41:35;136.88;;;41.50;;
76053;SDS011;64752;48.870;9.082;2023-02-14T03:44:02;141.95;;;43.28;;
76053;SDS011;64752;48.870;9.082;2023-02-14T03:46:29;140.52;;;42.47;;
76053;SDS011;64752;48.870;9.082;2023-02-14T03:48:57;135.30;;;43.10;;
76053;SDS011;64752;48.870;9.082;2023-02-14T03:51:23;130.40;;;41.22;;
76053;SDS011;64752;48.870;9.082;2023-02-14T03:53:50;139.40;;;42.67;;
76053;SDS011;64752;48.870;9.082;2023-02-14T03:58:42;149.55;;;39.83;;
76053;SDS011;64752;48.870;9.082;2023-02-14T04:01:25;171.02;;;45.03;;
76053;SDS011;64752;48.870;9.082;2023-02-14T04:03:52;178.00;;;46.15;;
76053;SDS011;64752;48.870;9.082;2023-02-14T04:06:18;200.20;;;47.85;;
76053;SDS011;64752;48.870;9.082;2023-02-14T04:08:44;217.05;;;50.70;;
76053;SDS011;64752;48.870;9.082;2023-02-14T04:11:10;183.93;;;47.47;;
76053;SDS011;64752;48.870;9.082;2023-02-14T04:13:35;201.47;;;49.23;;
76053;SDS011;64752;48.870;9.082;2023-02-14T04:16:01;189.77;;;48.30;;
76053;SDS011;64752;48.870;9.082;2023-02-14T04:18:26;213.27;;;51.40;;
76053;SDS011;64752;48.870;9.082;2023-02-14T04:21:10;199.55;;;48.35;;
76053;SDS011;64752;48.870;9.082;2023-02-14T04:23:36;221.07;;;52.57;;
76053;SDS011;64752;48.870;9.082;2023-02-14T04:26:01;235.15;;;52.38;;
76053;SDS011;64752;48.870;9.082;2023-02-14T04:28:28;227.27;;;53.45;;
76053;SDS011;64752;48.870;9.082;2023-02-14T04:30:53;245.40;;;52.42;;
76053;SDS011;64752;48.870;9.082;2023-02-14T04:33:18;229.43;;;51.87;;
76053;SDS011;64752;48.870;9.082;2023-02-14T04:35:43;221.80;;;50.93;;
76053;SDS011;64752;48.870;9.082;2023-02-14T04:38:11;227.65;;;51.70;;
76053;SDS011;64752;48.870;9.082;2023-02-14T04:40:36;216.23;;;50.43;;
76053;SDS011;64752;48.870;9.082;2023-02-14T04:43:01;191.53;;;50.90;;
76053;SDS011;64752;48.870;9.082;2023-02-14T04:45:28;208.15;;;50.83;;
76053;SDS011;64752;48.870;9.082;2023-02-14T04:47:53;212.20;;;51.23;;
76053;SDS011;64752;48.870;9.082;2023-02-14T04:50:19;211.75;;;51.03;;
76053;SDS011;64752;48.870;9.082;2023-02-14T04:52:44;202.97;;;47.87;;
76053;SDS011;64752;48.870;9.082;2023-02-14T04:55:09;215.25;;;51.45;;
76053;SDS011;64752;48.870;9.082;2023-02-14T04:57:34;203.55;;;49.50;;
76053;SDS011;64752;48.870;9.082;2023-02-14T05:00:00;226.27;;;53.03;;
76053;SDS011;64752;48.870;9.082;2023-02-14T05:02:25;217.60;;;52.60;;
76053;SDS011;64752;48.870;9.082;2023-02-14T05:04:50;236.57;;;53.40;;
76053;SDS011;64752;48.870;9.082;2023-02-14T05:07:18;226.02;;;53.47;;
76053;SDS011;64752;48.870;9.082;2023-02-14T05:09:43;242.37;;;54.13;;
76053;SDS011;64752;48.870;9.082;2023-02-14T05:12:09;234.10;;;54.03;;
76053;SDS011;64752;48.870;9.082;2023-02-14T05:14:34;235.23;;;51.30;;
76053;SDS011;64752;48.870;9.082;2023-02-14T05:16:59;233.20;;;52.77;;
76053;SDS011;64752;48.870;9.082;2023-02-14T05:19:24;222.38;;;52.80;;
76053;SDS011;64752;48.870;9.082;2023-02-14T05:21:49;226.15;;;53.33;;
76053;SDS011;64752;48.870;9.082;2023-02-14T05:24:15;211.27;;;51.50;;
76053;SDS011;64752;48.870;9.082;2023-02-14T05:26:40;200.07;;;48.97;;
76053;SDS011;64752;48.870;9.082;2023-02-14T05:29:05;191.90;;;48.78;;
76053;SDS011;64752;48.870;9.082;2023-02-14T05:31:31;170.25;;;48.90;;
76053;SDS011;64752;48.870;9.082;2023-02-14T05:33:58;172.20;;;45.80;;
76053;SDS011;64752;48.870;9.082;2023-02-14T05:36:23;170.27;;;46.22;;
76053;SDS011;64752;48.870;9.082;2023-02-14T05:38:49;173.60;;;45.87;;
76053;SDS011;64752;48.870;9.082;2023-02-14T05:41:14;160.73;;;45.13;;
76053;SDS011;64752;48.870;9.082;2023-02-14T05:43:39;176.97;;;45.63;;
76053;SDS011;64752;48.870;9.082;2023-02-14T05:46:04;168.50;;;47.63;;
76053;SDS011;64752;48.870;9.082;2023-02-14T05:48:30;155.87;;;43.40;;
76053;SDS011;64752;48.870;9.082;2023-02-14T05:50:55;170.32;;;45.13;;
76053;SDS011;64752;48.870;9.082;2023-02-14T05:53:20;161.73;;;44.63;;
76053;SDS011;64752;48.870;9.082;2023-02-14T05:55:45;153.60;;;44.40;;
76053;SDS011;64752;48.870;9.082;2023-02-14T05:58:11;167.82;;;43.92;;
76053;SDS011;64752;48.870;9.082;2023-02-14T06:00:36;197.90;;;47.45;;
76053;SDS011;64752;48.870;9.082;2023-02-14T06:03:02;188.30;;;49.93;;
76053;SDS011;64752;48.870;9.082;2023-02-14T06:05:27;248.07;;;55.80;;
76053;SDS011;64752;48.870;9.082;2023-02-14T06:07:52;207.53;;;52.80;;
76053;SDS011;64752;48.870;9.082;2023-02-14T06:10:18;219.13;;;51.75;;
76053;SDS011;64752;48.870;9.082;2023-02-14T06:12:44;195.95;;;49.67;;
76053;SDS011;64752;48.870;9.082;2023-02-14T06:15:09;202.13;;;50.13;;
76053;SDS011;64752;48.870;9.082;2023-02-14T06:17:34;195.82;;;49.20;;
76053;SDS011;64752;48.870;9.082;2023-02-14T06:19:59;178.93;;;47.10;;
76053;SDS011;64752;48.870;9.082;2023-02-14T06:22:25;214.33;;;51.83;;
76053;SDS011;64752;48.870;9.082;2023-02-14T06:24:50;206.87;;;49.30;;
76053;SDS011;64752;48.870;9.082;2023-02-14T06:27:15;229.37;;;52.73;;
76053;SDS011;64752;48.870;9.082;2023-02-14T06:29:40;213.57;;;50.47;;
76053;SDS011;64752;48.870;9.082;2023-02-14T06:32:06;263.20;;;55.50;;
76053;SDS011;64752;48.870;9.082;2023-02-14T06:34:34;224.70;;;52.70;;
76053;SDS011;64752;48.870;9.082;2023-02-14T06:36:59;237.10;;;55.38;;
76053;SDS011;64752;48.870;9.082;2023-02-14T06:39:25;258.87;;;57.03;;
76053;SDS011;64752;48.870;9.082;2023-02-14T06:41:50;220.00;;;53.88;;
76053;SDS011;64752;48.870;9.082;2023-02-14T06:44:15;225.05;;;52.75;;
76053;SDS011;64752;48.870;9.082;2023-02-14T06:46:40;231.55;;;54.97;;
76053;SDS011;64752;48.870;9.082;2023-02-14T06:49:06;209.68;;;51.78;;
76053;SDS011;64752;48.870;9.082;2023-02-14T06:51:31;203.30;;;48.80;;
76053;SDS011;64752;48.870;9.082;2023-02-14T06:53:56;210.43;;;49.00;;
76053;SDS011;64752;48.870;9.082;2023-02-14T06:56:21;209.93;;;51.10;;
76053;SDS011;64752;48.870;9.082;2023-02-14T06:58:46;209.47;;;52.03;;
76053;SDS011;64752;48.870;9.082;2023-02-14T07:01:12;207.90;;;50.47;;
76053;SDS011;64752;48.870;9.082;2023-02-14T07:03:37;181.48;;;48.10;;
76053;SDS011;64752;48.870;9.082;2023-02-14T07:06:02;197.38;;;51.10;;
76053;SDS011;64752;48.870;9.082;2023-02-14T07:08:28;183.68;;;48.63;;
76053;SDS011;64752;48.870;9.082;2023-02-14T07:10:56;185.52;;;50.97;;
76053;SDS011;64752;48.870;9.082;2023-02-14T07:13:22;195.75;;;53.50;;
76053;SDS011;64752;48.870;9.082;2023-02-14T07:15:47;195.87;;;56.57;;
76053;SDS011;64752;48.870;9.082;2023-02-14T07:18:12;143.82;;;51.63;;
76053;SDS011;64752;48.870;9.082;2023-02-14T07:20:37;140.30;;;50.47;;
76053;SDS011;64752;48.870;9.082;2023-02-14T07:23:02;89.63;;;41.17;;
76053;SDS011;64752;48.870;9.082;2023-02-14T07:25:28;59.70;;;32.30;;
76053;SDS011;64752;48.870;9.082;2023-02-14T07:27:53;44.78;;;26.58;;
76053;SDS011;64752;48.870;9.082;2023-02-14T07:30:18;50.83;;;29.42;;
76053;SDS011;64752;48.870;9.082;2023-02-14T07:32:44;44.78;;;26.85;;
76053;SDS011;64752;48.870;9.082;2023-02-14T07:35:09;41.65;;;24.35;;
76053;SDS011;64752;48.870;9.082;2023-02-14T07:37:34;34.97;;;21.85;;
76053;SDS011;64752;48.870;9.082;2023-02-14T07:39:59;37.10;;;22.85;;
76053;SDS011;64752;48.870;9.082;2023-02-14T07:42:25;31.90;;;19.98;;
76053;SDS011;64752;48.870;9.082;2023-02-14T07:44:50;34.03;;;19.73;;
76053;SDS011;64752;48.870;9.082;2023-02-14T07:47:15;34.53;;;20.77;;
76053;SDS011;64752;48.870;9.082;2023-02-14T07:49:40;29.73;;;19.73;;
76053;SDS011;64752;48.870;9.082;2023-02-14T07:52:06;38.60;;;22.00;;
76053;SDS011;64752;48.870;9.082;2023-02-14T07:54:31;32.90;;;21.42;;
76053;SDS011;64752;48.870;9.082;2023-02-14T07:56:56;35.17;;;20.95;;
76053;SDS011;64752;48.870;9.082;2023-02-14T07:59:22;34.20;;;21.63;;
76053;SDS011;64752;48.870;9.082;2023-02-14T08:01:47;33.47;;;21.60;;
76053;SDS011;64752;48.870;9.082;2023-02-14T08:04:12;30.42;;;20.38;;
76053;SDS011;64752;48.870;9.082;2023-02-14T08:06:38;31.08;;;20.23;;
76053;SDS011;64752;48.870;9.082;2023-02-14T08:09:03;31.55;;;20.70;;
76053;SDS011;64752;48.870;9.082;2023-02-14T08:11:28;30.85;;;19.95;;
76053;SDS011;64752;48.870;9.082;2023-02-14T08:14:12;27.42;;;18.92;;
76053;SDS011;64752;48.870;9.082;2023-02-14T08:16:38;29.63;;;18.85;;
76053;SDS011;64752;48.870;9.082;2023-02-14T08:19:03;28.48;;;18.98;;
76053;SDS011;64752;48.870;9.082;2023-02-14T08:21:29;28.20;;;19.05;;
76053;SDS011;64752;48.870;9.082;2023-02-14T08:23:54;27.55;;;19.27;;
76053;SDS011;64752;48.870;9.082;2023-02-14T08:26:19;29.50;;;19.25;;
76053;SDS011;64752;48.870;9.082;2023-02-14T08:28:44;27.77;;;17.92;;
76053;SDS011;64752;48.870;9.082;2023-02-14T08:31:10;25.40;;;17.95;;
76053;SDS011;64752;48.870;9.082;2023-02-14T08:33:35;23.92;;;17.45;;
76053;SDS011;64752;48.870;9.082;2023-02-14T08:36:00;27.05;;;18.92;;
76053;SDS011;64752;48.870;9.082;2023-02-14T08:38:26;26.08;;;18.77;;
76053;SDS011;64752;48.870;9.082;2023-02-14T08:40:52;25.45;;;17.42;;
76053;SDS011;64752;48.870;9.082;2023-02-14T08:43:17;30.58;;;18.50;;
76053;SDS011;64752;48.870;9.082;2023-02-14T08:45:42;29.20;;;17.77;;
76053;SDS011;64752;48.870;9.082;2023-02-14T08:48:09;28.30;;;18.35;;
76053;SDS011;64752;48.870;9.082;2023-02-14T08:50:34;26.42;;;17.73;;
76053;SDS011;64752;48.870;9.082;2023-02-14T08:52:59;25.50;;;18.15;;
76053;SDS011;64752;48.870;9.082;2023-02-14T08:55:25;24.98;;;18.63;;
76053;SDS011;64752;48.870;9.082;2023-02-14T08:57:51;27.30;;;17.58;;
76053;SDS011;64752;48.870;9.082;2023-02-14T09:02:43;26.27;;;17.77;;
76053;SDS011;64752;48.870;9.082;2023-02-14T09:05:08;26.60;;;17.60;;
76053;SDS011;64752;48.870;9.082;2023-02-14T09:07:34;25.88;;;18.48;;
76053;SDS011;64752;48.870;9.082;2023-02-14T09:10:00;26.40;;;17.88;;
76053;SDS011;64752;48.870;9.082;2023-02-14T09:12:25;23.42;;;16.95;;
76053;SDS011;64752;48.870;9.082;2023-02-14T09:14:51;24.55;;;17.75;;
76053;SDS011;64752;48.870;9.082;2023-02-14T09:17:16;23.97;;;18.30;;
76053;SDS011;64752;48.870;9.082;2023-02-14T09:19:41;34.73;;;18.10;;
76053;SDS011;64752;48.870;9.082;2023-02-14T09:22:07;28.20;;;18.23;;
76053;SDS011;64752;48.870;9.082;2023-02-14T09:24:33;26.03;;;18.63;;
76053;SDS011;64752;48.870;9.082;2023-02-14T09:26:58;28.10;;;17.00;;
76053;SDS011;64752;48.870;9.082;2023-02-14T09:29:25;23.17;;;17.67;;
76053;SDS011;64752;48.870;9.082;2023-02-14T09:31:51;24.27;;;17.50;;
76053;SDS011;64752;48.870;9.082;2023-02-14T09:34:16;23.80;;;18.07;;
76053;SDS011;64752;48.870;9.082;2023-02-14T09:36:42;25.27;;;17.77;;
76053;SDS011;64752;48.870;9.082;2023-02-14T09:39:07;24.30;;;18.40;;
76053;SDS011;64752;48.870;9.082;2023-02-14T09:41:56;22.33;;;17.83;;
76053;SDS011;64752;48.870;9.082;2023-02-14T09:46:51;22.58;;;17.67;;
76053;SDS011;64752;48.870;9.082;2023-02-14T09:51:44;23.25;;;17.55;;
76053;SDS011;64752;48.870;9.082;2023-02-14T09:54:13;24.25;;;17.73;;
76053;SDS011;64752;48.870;9.082;2023-02-14T09:56:50;22.17;;;18.05;;
76053;SDS011;64752;48.870;9.082;2023-02-14T10:06:59;22.60;;;18.43;;
76053;SDS011;64752;48.870;9.082;2023-02-14T10:09:36;23.02;;;16.80;;
76053;SDS011;64752;48.870;9.082;2023-02-14T10:12:02;19.67;;;16.63;;
76053;SDS011;64752;48.870;9.082;2023-02-14T10:14:30;22.90;;;17.40;;
76053;SDS011;64752;48.870;9.082;2023-02-14T10:21:52;21.07;;;16.90;;
76053;SDS011;64752;48.870;9.082;2023-02-14T10:24:20;21.88;;;16.55;;
76053;SDS011;64752;48.870;9.082;2023-02-14T10:26:47;20.70;;;16.35;;
76053;SDS011;64752;48.870;9.082;2023-02-14T10:29:14;20.15;;;16.75;;
76053;SDS011;64752;48.870;9.082;2023-02-14T10:47:09;21.55;;;16.80;;
76053;SDS011;64752;48.870;9.082;2023-02-14T10:52:22;21.60;;;16.98;;
76053;SDS011;64752;48.870;9.082;2023-02-14T10:54:53;23.73;;;16.17;;
76053;SDS011;64752;48.870;9.082;2023-02-14T10:57:21;21.48;;;16.60;;
76053;SDS011;64752;48.870;9.082;2023-02-14T10:59:53;23.90;;;17.02;;
76053;SDS011;64752;48.870;9.082;2023-02-14T11:02:21;22.08;;;16.67;;
76053;SDS011;64752;48.870;9.082;2023-02-14T11:04:48;19.75;;;16.30;;
76053;SDS011;64752;48.870;9.082;2023-02-14T11:07:17;21.23;;;17.27;;
76053;SDS011;64752;48.870;9.082;2023-02-14T11:09:43;21.08;;;17.08;;
76053;SDS011;64752;48.870;9.082;2023-02-14T11:12:08;22.40;;;17.27;;
76053;SDS011;64752;48.870;9.082;2023-02-14T11:14:34;22.87;;;17.40;;
76053;SDS011;64752;48.870;9.082;2023-02-14T11:17:25;22.10;;;16.75;;
76053;SDS011;64752;48.870;9.082;2023-02-14T11:19:54;21.20;;;16.60;;
76053;SDS011;64752;48.870;9.082;2023-02-14T11:22:29;21.80;;;17.10;;
76053;SDS011;64752;48.870;9.082;2023-02-14T11:25:03;22.35;;;16.52;;
76053;SDS011;64752;48.870;9.082;2023-02-14T11:27:28;20.73;;;16.63;;
76053;SDS011;64752;48.870;9.082;2023-02-14T11:29:53;19.93;;;16.27;;
76053;SDS011;64752;48.870;9.082;2023-02-14T11:32:19;20.70;;;16.50;;
76053;SDS011;64752;48.870;9.082;2023-02-14T11:34:51;21.02;;;16.33;;
76053;SDS011;64752;48.870;9.082;2023-02-14T11:39:45;22.65;;;16.40;;
76053;SDS011;64752;48.870;9.082;2023-02-14T11:42:11;24.20;;;16.00;;
76053;SDS011;64752;48.870;9.082;2023-02-14T11:44:36;20.67;;;16.47;;
76053;SDS011;64752;48.870;9.082;2023-02-14T11:47:15;20.50;;;16.15;;
76053;SDS011;64752;48.870;9.082;2023-02-14T11:49:41;23.02;;;16.05;;
76053;SDS011;64752;48.870;9.082;2023-02-14T11:52:17;18.20;;;14.97;;
76053;SDS011;64752;48.870;9.082;2023-02-14T11:54:50;26.20;;;17.75;;
76053;SDS011;64752;48.870;9.082;2023-02-14T11:57:19;20.40;;;15.45;;
76053;SDS011;64752;48.870;9.082;2023-02-14T11:59:47;19.75;;;15.57;;
76053;SDS011;64752;48.870;9.082;2023-02-14T12:02:25;19.90;;;15.73;;
76053;SDS011;64752;48.870;9.082;2023-02-14T12:04:53;18.92;;;15.32;;
76053;SDS011;64752;48.870;9.082;2023-02-14T12:07:41;19.33;;;15.05;;
76053;SDS011;64752;48.870;9.082;2023-02-14T12:10:06;18.38;;;15.45;;
76053;SDS011;64752;48.870;9.082;2023-02-14T12:12:32;21.38;;;15.90;;
76053;SDS011;64752;48.870;9.082;2023-02-14T12:15:11;20.95;;;15.18;;
76053;SDS011;64752;48.870;9.082;2023-02-14T12:17:37;20.17;;;16.48;;
76053;SDS011;64752;48.870;9.082;2023-02-14T12:20:08;20.30;;;15.82;;
76053;SDS011;64752;48.870;9.082;2023-02-14T12:22:36;22.55;;;16.50;;
76053;SDS011;64752;48.870;9.082;2023-02-14T12:25:16;22.02;;;15.40;;
76053;SDS011;64752;48.870;9.082;2023-02-14T12:27:49;25.92;;;15.85;;
76053;SDS011;64752;48.870;9.082;2023-02-14T12:32:44;23.83;;;17.13;;
76053;SDS011;64752;48.870;9.082;2023-02-14T12:41:05;23.80;;;17.30;;
76053;SDS011;64752;48.870;9.082;2023-02-14T12:50:53;19.57;;;16.50;;
76053;SDS011;64752;48.870;9.082;2023-02-14T12:53:31;18.92;;;15.60;;
76053;SDS011;64752;48.870;9.082;2023-02-14T12:56:03;19.88;;;15.48;;
76053;SDS011;64752;48.870;9.082;2023-02-14T13:01:38;18.85;;;15.85;;
76053;SDS011;64752;48.870;9.082;2023-02-14T13:17:11;20.70;;;15.43;;
76053;SDS011;64752;48.870;9.082;2023-02-14T13:19:43;19.10;;;16.38;;
76053;SDS011;64752;48.870;9.082;2023-02-14T13:22:11;21.98;;;16.92;;
76053;SDS011;64752;48.870;9.082;2023-02-14T13:24:44;22.45;;;16.02;;
76053;SDS011;64752;48.870;9.082;2023-02-14T13:27:15;20.42;;;16.52;;
76053;SDS011;64752;48.870;9.082;2023-02-14T13:30:04;20.40;;;15.93;;
76053;SDS011;64752;48.870;9.082;2023-02-14T13:32:29;20.85;;;16.90;;
76053;SDS011;64752;48.870;9.082;2023-02-14T13:34:56;20.08;;;16.13;;
76053;SDS011;64752;48.870;9.082;2023-02-14T13:37:22;18.80;;;16.13;;
76053;SDS011;64752;48.870;9.082;2023-02-14T13:39:56;18.80;;;15.90;;
76053;SDS011;64752;48.870;9.082;2023-02-14T13:45:10;21.30;;;16.63;;
76053;SDS011;64752;48.870;9.082;2023-02-14T13:48:00;23.50;;;17.55;;
76053;SDS011;64752;48.870;9.082;2023-02-14T13:50:26;20.45;;;17.50;;
76053;SDS011;64752;48.870;9.082;2023-02-14T13:52:51;20.43;;;17.43;;
76053;SDS011;64752;48.870;9.082;2023-02-14T13:55:19;23.73;;;17.38;;
76053;SDS011;64752;48.870;9.082;2023-02-14T13:57:45;23.05;;;17.92;;
76053;SDS011;64752;48.870;9.082;2023-02-14T14:02:42;21.70;;;16.67;;
76053;SDS011;64752;48.870;9.082;2023-02-14T14:08:15;21.40;;;16.55;;
76053;SDS011;64752;48.870;9.082;2023-02-14T14:10:41;22.65;;;16.08;;
76053;SDS011;64752;48.870;9.082;2023-02-14T14:13:06;20.67;;;16.38;;
76053;SDS011;64752;48.870;9.082;2023-02-14T14:15:32;26.10;;;17.00;;
76053;SDS011;64752;48.870;9.082;2023-02-14T14:20:42;22.27;;;17.30;;
76053;SDS011;64752;48.870;9.082;2023-02-14T14:28:53;20.98;;;16.42;;
76053;SDS011;64752;48.870;9.082;2023-02-14T14:31:18;20.97;;;17.27;;
76053;SDS011;64752;48.870;9.082;2023-02-14T14:33:44;22.88;;;16.85;;
76053;SDS011;64752;48.870;9.082;2023-02-14T14:36:10;22.80;;;17.30;;
76053;SDS011;64752;48.870;9.082;2023-02-14T14:38:46;22.40;;;16.85;;
76053;SDS011;64752;48.870;9.082;2023-02-14T14:41:12;19.42;;;16.25;;
76053;SDS011;64752;48.870;9.082;2023-02-14T14:43:37;21.13;;;16.97;;
76053;SDS011;64752;48.870;9.082;2023-02-14T14:46:03;24.55;;;17.35;;
76053;SDS011;64752;48.870;9.082;2023-02-14T14:48:36;20.90;;;16.52;;
76053;SDS011;64752;48.870;9.082;2023-02-14T14:51:02;22.80;;;17.50;;
76053;SDS011;64752;48.870;9.082;2023-02-14T14:53:30;21.23;;;16.50;;
76053;SDS011;64752;48.870;9.082;2023-02-14T14:55:57;21.13;;;16.25;;
76053;SDS011;64752;48.870;9.082;2023-02-14T14:58:31;21.77;;;16.02;;
76053;SDS011;64752;48.870;9.082;2023-02-14T15:00:56;23.42;;;16.10;;
76053;SDS011;64752;48.870;9.082;2023-02-14T15:03:22;19.73;;;15.23;;
76053;SDS011;64752;48.870;9.082;2023-02-14T15:05:49;21.88;;;17.98;;
76053;SDS011;64752;48.870;9.082;2023-02-14T15:11:11;20.83;;;16.05;;
76053;SDS011;64752;48.870;9.082;2023-02-14T15:13:57;23.08;;;16.55;;
76053;SDS011;64752;48.870;9.082;2023-02-14T15:16:27;20.17;;;15.63;;
76053;SDS011;64752;48.870;9.082;2023-02-14T15:18:55;22.73;;;17.25;;
76053;SDS011;64752;48.870;9.082;2023-02-14T15:21:21;19.83;;;15.55;;
76053;SDS011;64752;48.870;9.082;2023-02-14T15:23:46;20.33;;;15.80;;
76053;SDS011;64752;48.870;9.082;2023-02-14T15:26:22;20.98;;;16.30;;
76053;SDS011;64752;48.870;9.082;2023-02-14T15:28:56;23.40;;;17.40;;
76053;SDS011;64752;48.870;9.082;2023-02-14T15:31:21;28.50;;;17.52;;
76053;SDS011;64752;48.870;9.082;2023-02-14T15:33:48;23.38;;;17.98;;
76053;SDS011;64752;48.870;9.082;2023-02-14T15:36:17;26.20;;;19.42;;
76053;SDS011;64752;48.870;9.082;2023-02-14T15:38:43;21.40;;;17.63;;
76053;SDS011;64752;48.870;9.082;2023-02-14T15:41:09;26.52;;;18.77;;
76053;SDS011;64752;48.870;9.082;2023-02-14T15:48:37;29.17;;;20.55;;
76053;SDS011;64752;48.870;9.082;2023-02-14T15:51:03;24.43;;;18.93;;
76053;SDS011;64752;48.870;9.082;2023-02-14T15:56:02;26.23;;;19.95;;
76053;SDS011;64752;48.870;9.082;2023-02-14T15:58:28;25.95;;;19.58;;
76053;SDS011;64752;48.870;9.082;2023-02-14T16:00:55;28.00;;;19.45;;
76053;SDS011;64752;48.870;9.082;2023-02-14T16:03:21;27.60;;;20.98;;
76053;SDS011;64752;48.870;9.082;2023-02-14T16:05:48;30.35;;;20.27;;
76053;SDS011;64752;48.870;9.082;2023-02-14T16:08:29;23.85;;;18.92;;
76053;SDS011;64752;48.870;9.082;2023-02-14T16:11:14;29.15;;;20.52;;
76053;SDS011;64752;48.870;9.082;2023-02-14T16:13:43;28.15;;;20.20;;
76053;SDS011;64752;48.870;9.082;2023-02-14T16:16:10;29.92;;;21.55;;
76053;SDS011;64752;48.870;9.082;2023-02-14T16:26:04;34.63;;;21.95;;
76053;SDS011;64752;48.870;9.082;2023-02-14T16:28:29;32.50;;;22.73;;
76053;SDS011;64752;48.870;9.082;2023-02-14T16:30:55;32.15;;;22.50;;
76053;SDS011;64752;48.870;9.082;2023-02-14T16:33:22;30.27;;;22.52;;
76053;SDS011;64752;48.870;9.082;2023-02-14T16:35:48;32.80;;;23.42;;
76053;SDS011;64752;48.870;9.082;2023-02-14T16:38:14;36.25;;;24.00;;
76053;SDS011;64752;48.870;9.082;2023-02-14T16:40:44;33.17;;;22.65;;
76053;SDS011;64752;48.870;9.082;2023-02-14T16:43:13;33.47;;;23.13;;
76053;SDS011;64752;48.870;9.082;2023-02-14T16:45:39;32.50;;;22.02;;
76053;SDS011;64752;48.870;9.082;2023-02-14T16:48:05;35.47;;;23.63;;
76053;SDS011;64752;48.870;9.082;2023-02-14T16:50:30;33.95;;;23.73;;
76053;SDS011;64752;48.870;9.082;2023-02-14T16:52:56;36.63;;;25.27;;
76053;SDS011;64752;48.870;9.082;2023-02-14T16:55:22;35.97;;;25.30;;
76053;SDS011;64752;48.870;9.082;2023-02-14T16:57:48;37.10;;;24.52;;
76053;SDS011;64752;48.870;9.082;2023-02-14T17:00:14;34.55;;;23.52;;
76053;SDS011;64752;48.870;9.082;2023-02-14T17:02:39;35.53;;;24.80;;
76053;SDS011;64752;48.870;9.082;2023-02-14T17:05:05;35.65;;;24.50;;
76053;SDS011;64752;48.870;9.082;2023-02-14T17:07:30;37.05;;;26.05;;
76053;SDS011;64752;48.870;9.082;2023-02-14T17:09:58;38.08;;;25.48;;
76053;SDS011;64752;48.870;9.082;2023-02-14T17:14:50;36.72;;;25.08;;
76053;SDS011;64752;48.870;9.082;2023-02-14T17:17:16;38.00;;;25.23;;